createdAt,value
2019-05-23T00:00:52.641Z,0
2019-05-23T00:01:54.040Z,0
2019-05-23T00:02:55.547Z,0
2019-05-23T00:03:56.950Z,0
2019-05-23T00:04:58.344Z,0
2019-05-23T00:06:00.234Z,0
2019-05-23T00:07:01.635Z,0
2019-05-23T00:08:03.066Z,0
2019-05-23T00:09:04.571Z,0
2019-05-23T00:10:05.970Z,0
2019-05-23T00:11:07.372Z,0
2019-05-23T00:12:08.891Z,0
2019-05-23T00:13:10.292Z,0
2019-05-23T00:14:11.772Z,0
2019-05-23T00:15:13.195Z,0
2019-05-23T00:16:15.031Z,0
2019-05-23T00:17:16.468Z,0
2019-05-23T00:18:20.833Z,0
2019-05-23T00:19:19.324Z,0
2019-05-23T00:20:20.825Z,0
2019-05-23T00:21:22.223Z,0
2019-05-23T00:22:23.620Z,0
2019-05-23T00:23:25.146Z,0
2019-05-23T00:24:26.578Z,0
2019-05-23T00:25:27.981Z,0
2019-05-23T00:26:29.467Z,0
2019-05-23T00:27:30.867Z,0
2019-05-23T00:28:32.347Z,0
2019-05-23T00:29:33.768Z,0
2019-05-23T00:30:35.229Z,0
2019-05-23T00:31:36.627Z,0
2019-05-23T00:32:38.117Z,0
2019-05-23T00:33:39.885Z,0
2019-05-23T00:34:41.457Z,0
2019-05-23T00:35:42.801Z,0
2019-05-23T00:36:44.272Z,0
2019-05-23T00:37:45.720Z,0
2019-05-23T00:38:47.118Z,0
2019-05-23T00:39:48.517Z,0
2019-05-23T00:40:50.038Z,0
2019-05-23T00:41:51.440Z,0
2019-05-23T00:42:52.929Z,0
2019-05-23T00:43:54.323Z,0
2019-05-23T00:44:55.812Z,0
2019-05-23T00:45:57.227Z,0
2019-05-23T00:46:58.689Z,0
2019-05-23T00:48:00.083Z,0
2019-05-23T00:49:01.568Z,0
2019-05-23T00:50:02.966Z,0
2019-05-23T00:51:05.291Z,0
2019-05-23T00:52:05.890Z,0
2019-05-23T00:53:07.294Z,0
2019-05-23T00:54:08.707Z,0
2019-05-23T00:55:10.219Z,0
2019-05-23T00:56:11.621Z,0
2019-05-23T00:57:13.089Z,0
2019-05-23T00:58:14.489Z,0
2019-05-23T00:59:26.461Z,0
2019-05-23T01:00:17.337Z,0
2019-05-23T01:01:18.777Z,0
2019-05-23T01:02:20.291Z,0
2019-05-23T01:03:21.695Z,0
2019-05-23T01:04:23.094Z,0
2019-05-23T01:05:24.617Z,0
2019-05-23T01:06:26.018Z,0
2019-05-23T01:07:27.795Z,0
2019-05-23T01:08:29.342Z,0
2019-05-23T01:09:30.744Z,0
2019-05-23T01:10:32.149Z,0
2019-05-23T01:11:33.665Z,0
2019-05-23T01:12:35.120Z,0
2019-05-23T01:13:36.512Z,0
2019-05-23T01:14:37.999Z,0
2019-05-23T01:15:39.385Z,0
2019-05-23T01:16:40.786Z,0
2019-05-23T01:17:42.362Z,0
2019-05-23T01:18:43.768Z,0
2019-05-23T01:19:45.167Z,0
2019-05-23T01:20:47.015Z,0
2019-05-23T01:21:48.405Z,0
2019-05-23T01:22:49.803Z,0
2019-05-23T01:23:51.359Z,0
2019-05-23T01:24:52.759Z,0
2019-05-23T01:25:54.162Z,0
2019-05-23T01:26:55.682Z,0
2019-05-23T01:27:57.082Z,0
2019-05-23T01:28:58.563Z,0
2019-05-23T01:29:59.966Z,0
2019-05-23T01:31:01.361Z,0
2019-05-23T01:32:02.886Z,0
2019-05-23T01:33:04.288Z,0
2019-05-23T01:34:05.686Z,0
2019-05-23T01:35:07.209Z,0
2019-05-23T01:36:08.602Z,0
2019-05-23T01:37:10.058Z,0
2019-05-23T01:38:11.534Z,0
2019-05-23T01:39:12.971Z,0
2019-05-23T01:40:14.410Z,0
2019-05-23T01:41:15.805Z,0
2019-05-23T01:42:17.215Z,0
2019-05-23T01:43:18.731Z,0
2019-05-23T01:44:20.174Z,0
2019-05-23T01:45:21.577Z,0
2019-05-23T01:46:23.053Z,0
2019-05-23T01:47:24.454Z,0
2019-05-23T01:48:25.934Z,0
2019-05-23T01:49:27.332Z,0
2019-05-23T01:50:28.811Z,0
2019-05-23T01:51:30.209Z,0
2019-05-23T01:52:31.618Z,0
2019-05-23T01:53:33.135Z,0
2019-05-23T01:54:34.536Z,0
2019-05-23T01:55:35.930Z,0
2019-05-23T01:56:37.455Z,0
2019-05-23T01:57:39.235Z,0
2019-05-23T01:58:40.629Z,0
2019-05-23T01:59:42.190Z,0
2019-05-23T02:00:43.626Z,0
2019-05-23T02:01:44.985Z,0
2019-05-23T02:02:46.507Z,0
2019-05-23T02:03:47.912Z,0
2019-05-23T02:04:49.388Z,0
2019-05-23T02:05:50.853Z,0
2019-05-23T02:06:52.868Z,0
2019-05-23T02:07:54.249Z,0
2019-05-23T02:08:55.766Z,0
2019-05-23T02:09:57.164Z,0
2019-05-23T02:10:59.024Z,0
2019-05-23T02:12:00.424Z,0
2019-05-23T02:13:01.937Z,0
2019-05-23T02:14:03.335Z,0
2019-05-23T02:15:04.820Z,0
2019-05-23T02:16:06.219Z,0
2019-05-23T02:17:07.716Z,0
2019-05-23T02:18:09.102Z,0
2019-05-23T02:19:13.573Z,0
2019-05-23T02:20:11.944Z,0
2019-05-23T02:21:13.461Z,0
2019-05-23T02:22:14.914Z,0
2019-05-23T02:23:16.719Z,0
2019-05-23T02:24:18.117Z,0
2019-05-23T02:25:19.632Z,0
2019-05-23T02:26:21.027Z,0
2019-05-23T02:27:22.581Z,0
2019-05-23T02:28:23.991Z,0
2019-05-23T02:29:25.602Z,0
2019-05-23T02:30:35.738Z,0
2019-05-23T02:31:28.478Z,0
2019-05-23T02:32:29.872Z,0
2019-05-23T02:33:31.274Z,0
2019-05-23T02:34:32.818Z,0
2019-05-23T02:35:34.196Z,0
2019-05-23T02:36:35.600Z,0
2019-05-23T02:37:37.124Z,0
2019-05-23T02:38:38.580Z,0
2019-05-23T02:39:40.009Z,0
2019-05-23T02:40:41.408Z,0
2019-05-23T02:41:42.893Z,0
2019-05-23T02:42:44.285Z,0
2019-05-23T02:43:45.711Z,0
2019-05-23T02:44:47.206Z,0
2019-05-23T02:45:48.607Z,0
2019-05-23T02:46:49.998Z,0
2019-05-23T02:47:51.529Z,0
2019-05-23T02:48:52.969Z,0
2019-05-23T02:49:54.365Z,0
2019-05-23T02:50:55.853Z,0
2019-05-23T02:51:57.241Z,0
2019-05-23T02:52:58.633Z,0
2019-05-23T02:54:00.221Z,0
2019-05-23T02:55:01.643Z,0
2019-05-23T02:56:03.028Z,4
2019-05-23T02:57:04.496Z,4
2019-05-23T02:58:05.894Z,0
2019-05-23T02:59:07.294Z,0
2019-05-23T03:00:08.825Z,4
2019-05-23T03:01:10.215Z,4
2019-05-23T03:02:11.607Z,4
2019-05-23T03:03:13.138Z,4
2019-05-23T03:04:14.540Z,8
2019-05-23T03:05:16.028Z,8
2019-05-23T03:06:17.533Z,8
2019-05-23T03:07:18.912Z,8
2019-05-23T03:08:20.294Z,12
2019-05-23T03:09:21.710Z,8
2019-05-23T03:10:23.232Z,12
2019-05-23T03:11:24.725Z,16
2019-05-23T03:12:26.123Z,16
2019-05-23T03:13:27.748Z,16
2019-05-23T03:14:29.142Z,20
2019-05-23T03:15:30.636Z,20
2019-05-23T03:16:32.050Z,20
2019-05-23T03:17:33.513Z,28
2019-05-23T03:18:35.094Z,28
2019-05-23T03:19:36.401Z,28
2019-05-23T03:20:37.814Z,32
2019-05-23T03:21:39.269Z,36
2019-05-23T03:22:40.689Z,40
2019-05-23T03:23:42.149Z,40
2019-05-23T03:24:43.547Z,44
2019-05-23T03:25:45.044Z,48
2019-05-23T03:26:46.441Z,56
2019-05-23T03:27:47.840Z,60
2019-05-23T03:28:49.353Z,64
2019-05-23T03:29:50.751Z,72
2019-05-23T03:30:52.152Z,80
2019-05-23T03:31:53.693Z,88
2019-05-23T03:32:55.073Z,92
2019-05-23T03:33:56.470Z,104
2019-05-23T03:34:58.389Z,112
2019-05-23T03:35:59.885Z,124
2019-05-23T03:37:01.184Z,132
2019-05-23T03:38:02.737Z,140
2019-05-23T03:39:04.123Z,152
2019-05-23T03:40:05.558Z,164
2019-05-23T03:41:07.048Z,176
2019-05-23T03:42:08.459Z,192
2019-05-23T03:43:09.862Z,204
2019-05-23T03:44:11.371Z,216
2019-05-23T03:45:12.765Z,228
2019-05-23T03:46:14.168Z,240
2019-05-23T03:47:15.693Z,256
2019-05-23T03:48:17.091Z,272
2019-05-23T03:49:18.495Z,288
2019-05-23T03:50:20.018Z,308
2019-05-23T03:51:21.422Z,332
2019-05-23T03:52:22.816Z,348
2019-05-23T03:53:24.335Z,368
2019-05-23T03:54:25.735Z,392
2019-05-23T03:55:27.218Z,412
2019-05-23T03:56:28.689Z,436
2019-05-23T03:57:30.401Z,468
2019-05-23T03:58:31.799Z,496
2019-05-23T03:59:33.283Z,528
2019-05-23T04:00:34.710Z,560
2019-05-23T04:01:47.651Z,588
2019-05-23T04:02:37.760Z,608
2019-05-23T04:03:40.113Z,616
2019-05-23T04:04:40.693Z,616
2019-05-23T04:05:42.091Z,624
2019-05-23T04:06:43.498Z,660
2019-05-23T04:07:45.011Z,704
2019-05-23T04:08:46.414Z,756
2019-05-23T04:09:47.839Z,812
2019-05-23T04:10:51.830Z,868
2019-05-23T04:11:50.911Z,924
2019-05-23T04:12:52.308Z,976
2019-05-23T04:13:53.861Z,1028
2019-05-23T04:14:55.259Z,1076
2019-05-23T04:15:56.663Z,1116
2019-05-23T04:16:58.285Z,1132
2019-05-23T04:17:59.686Z,1128
2019-05-23T04:19:01.093Z,1120
2019-05-23T04:20:02.618Z,1120
2019-05-23T04:21:04.029Z,1128
2019-05-23T04:22:05.425Z,1140
2019-05-23T04:23:06.924Z,1176
2019-05-23T04:24:08.331Z,1236
2019-05-23T04:25:09.807Z,1348
2019-05-23T04:26:11.207Z,1488
2019-05-23T04:27:12.697Z,1608
2019-05-23T04:28:14.091Z,1688
2019-05-23T04:29:15.492Z,1724
2019-05-23T04:30:17.031Z,1760
2019-05-23T04:31:18.432Z,1788
2019-05-23T04:32:19.836Z,1824
2019-05-23T04:33:21.436Z,1860
2019-05-23T04:34:22.901Z,1908
2019-05-23T04:35:24.519Z,1956
2019-05-23T04:36:25.957Z,1976
2019-05-23T04:37:27.608Z,1956
2019-05-23T04:38:29.023Z,1916
2019-05-23T04:39:30.411Z,1876
2019-05-23T04:40:32.034Z,1828
2019-05-23T04:41:33.443Z,1780
2019-05-23T04:42:34.836Z,1832
2019-05-23T04:43:36.355Z,1964
2019-05-23T04:44:37.754Z,2084
2019-05-23T04:45:39.236Z,2132
2019-05-23T04:46:40.641Z,2152
2019-05-23T04:47:42.219Z,2164
2019-05-23T04:48:43.618Z,2184
2019-05-23T04:49:45.306Z,2204
2019-05-23T04:50:46.730Z,2252
2019-05-23T04:51:48.424Z,2312
2019-05-23T04:52:49.827Z,2368
2019-05-23T04:53:51.474Z,2436
2019-05-23T04:54:52.875Z,2484
2019-05-23T04:55:54.559Z,2504
2019-05-23T04:56:55.963Z,2532
2019-05-23T04:57:57.663Z,2560
2019-05-23T04:58:59.048Z,2568
2019-05-23T05:00:00.731Z,2540
2019-05-23T05:01:02.438Z,2500
2019-05-23T05:02:04.023Z,2412
2019-05-23T05:03:05.459Z,2308
2019-05-23T05:04:06.865Z,2268
2019-05-23T05:05:08.558Z,2280
2019-05-23T05:06:09.967Z,2320
2019-05-23T05:07:11.358Z,2360
2019-05-23T05:08:13.130Z,2404
2019-05-23T05:09:14.499Z,2472
2019-05-23T05:10:15.907Z,2540
2019-05-23T05:11:17.602Z,2592
2019-05-23T05:12:19.000Z,2596
2019-05-23T05:13:20.403Z,2628
2019-05-23T05:14:22.165Z,2688
2019-05-23T05:15:23.543Z,2808
2019-05-23T05:16:25.212Z,2956
2019-05-23T05:17:26.648Z,3028
2019-05-23T05:18:28.047Z,3100
2019-05-23T05:19:29.765Z,3192
2019-05-23T05:20:31.193Z,3212
2019-05-23T05:21:32.574Z,3208
2019-05-23T05:22:34.343Z,3200
2019-05-23T05:23:35.838Z,3144
2019-05-23T05:24:40.116Z,3104
2019-05-23T05:25:38.793Z,3092
2019-05-23T05:26:40.206Z,3108
2019-05-23T05:27:41.598Z,3160
2019-05-23T05:28:43.324Z,3200
2019-05-23T05:29:44.730Z,3240
2019-05-23T05:30:46.430Z,3260
2019-05-23T05:31:47.830Z,3320
2019-05-23T05:32:49.560Z,3408
2019-05-23T05:33:50.914Z,3448
2019-05-23T05:34:52.576Z,3388
2019-05-23T05:35:54.519Z,3252
2019-05-23T05:36:56.127Z,3172
2019-05-23T05:37:57.516Z,3360
2019-05-23T05:38:59.171Z,3548
2019-05-23T05:40:00.572Z,3508
2019-05-23T05:41:02.241Z,3428
2019-05-23T05:42:03.675Z,3484
2019-05-23T05:43:05.328Z,3608
2019-05-23T05:44:06.737Z,3624
2019-05-23T05:45:08.412Z,3608
2019-05-23T05:46:09.815Z,3672
2019-05-23T05:47:11.520Z,3808
2019-05-23T05:48:12.903Z,3900
2019-05-23T05:49:14.583Z,3940
2019-05-23T05:50:15.989Z,3856
2019-05-23T05:51:17.671Z,3800
2019-05-23T05:52:19.074Z,3736
2019-05-23T05:53:20.780Z,3764
2019-05-23T05:54:22.216Z,3820
2019-05-23T05:55:23.842Z,3884
2019-05-23T05:56:25.246Z,3856
2019-05-23T05:57:26.928Z,3896
2019-05-23T05:58:28.334Z,3972
2019-05-23T05:59:30.018Z,4136
2019-05-23T06:00:31.425Z,4324
2019-05-23T06:01:34.289Z,4448
2019-05-23T06:02:34.476Z,4532
2019-05-23T06:03:38.821Z,4428
2019-05-23T06:04:40.224Z,4292
2019-05-23T06:05:41.626Z,4376
2019-05-23T06:06:43.177Z,4580
2019-05-23T06:07:44.584Z,4932
2019-05-23T06:08:45.983Z,5000
2019-05-23T06:09:47.695Z,5056
2019-05-23T06:10:49.137Z,5180
2019-05-23T06:11:50.804Z,5220
2019-05-23T06:12:52.210Z,5320
2019-05-23T06:13:54.161Z,5428
2019-05-23T06:14:55.243Z,5464
2019-05-23T06:15:56.640Z,5564
2019-05-23T06:16:58.202Z,5656
2019-05-23T06:18:00.516Z,5728
2019-05-23T06:19:01.872Z,5936
2019-05-23T06:20:03.563Z,6636
2019-05-23T06:21:04.939Z,6336
2019-05-23T06:22:06.346Z,6248
2019-05-23T06:23:08.061Z,7044
2019-05-23T06:24:09.494Z,6676
2019-05-23T06:25:10.911Z,6424
2019-05-23T06:26:12.586Z,8068
2019-05-23T06:27:13.992Z,7200
2019-05-23T06:28:15.673Z,6940
2019-05-23T06:29:17.085Z,10504
2019-05-23T06:30:18.820Z,25952
2019-05-23T06:31:20.226Z,30816
2019-05-23T06:32:21.847Z,22496
2019-05-23T06:33:24.110Z,14144
2019-05-23T06:34:24.963Z,14224
2019-05-23T06:35:26.364Z,17408
2019-05-23T06:36:28.015Z,29760
2019-05-23T06:37:33.513Z,50112
2019-05-23T06:38:31.101Z,53024
2019-05-23T06:39:32.508Z,49600
2019-05-23T06:40:33.932Z,47136
2019-05-23T06:41:35.683Z,50816
2019-05-23T06:42:37.082Z,55968
2019-05-23T06:43:38.493Z,56064
2019-05-23T06:44:40.155Z,55520
2019-05-23T06:45:41.587Z,58784
2019-05-23T06:46:43.243Z,57472
2019-05-23T06:47:44.711Z,40800
2019-05-23T06:48:46.482Z,58944
2019-05-23T06:49:47.703Z,59904
2019-05-23T06:50:49.113Z,56736
2019-05-23T06:51:50.649Z,54880
2019-05-23T06:52:52.060Z,51904
2019-05-23T06:53:53.468Z,54528
2019-05-23T06:54:55.179Z,52832
2019-05-23T06:55:56.589Z,55616
2019-05-23T06:56:58.262Z,56704
2019-05-23T06:57:59.671Z,59968
2019-05-23T06:59:01.348Z,61376
2019-05-23T07:00:02.759Z,61856
2019-05-23T07:01:04.451Z,59424
2019-05-23T07:02:05.876Z,56480
2019-05-23T07:03:07.518Z,54080
2019-05-23T07:04:08.925Z,58528
2019-05-23T07:05:10.331Z,61312
2019-05-23T07:06:12.045Z,61248
2019-05-23T07:07:13.459Z,61728
2019-05-23T07:08:14.879Z,61024
2019-05-23T07:09:16.568Z,57248
2019-05-23T07:10:18.001Z,56608
2019-05-23T07:11:19.391Z,55552
2019-05-23T07:12:21.102Z,62080
2019-05-23T07:13:22.521Z,65536
2019-05-23T07:14:24.183Z,64896
2019-05-23T07:15:25.604Z,65120
2019-05-23T07:16:27.666Z,63808
2019-05-23T07:17:29.073Z,63520
2019-05-23T07:18:30.767Z,70688
2019-05-23T07:19:32.175Z,73312
2019-05-23T07:20:33.852Z,75040
2019-05-23T07:21:35.265Z,70848
2019-05-23T07:22:36.673Z,71072
2019-05-23T07:23:38.413Z,68768
2019-05-23T07:24:56.472Z,67200
2019-05-23T07:25:41.210Z,70368
2019-05-23T07:26:42.976Z,72224
2019-05-23T07:27:44.290Z,74976
2019-05-23T07:28:45.986Z,64928
2019-05-23T07:29:47.423Z,63200
2019-05-23T07:30:49.074Z,60832
2019-05-23T07:31:50.490Z,69984
2019-05-23T07:32:52.061Z,71872
2019-05-23T07:34:01.847Z,72128
2019-05-23T07:34:55.032Z,67328
2019-05-23T07:35:56.454Z,68832
2019-05-23T07:36:57.866Z,66656
2019-05-23T07:37:59.563Z,72032
2019-05-23T07:39:00.979Z,73024
2019-05-23T07:40:02.390Z,70912
2019-05-23T07:41:04.115Z,71392
2019-05-23T07:42:05.565Z,69088
2019-05-23T07:43:06.942Z,76512
2019-05-23T07:44:08.667Z,71488
2019-05-23T07:45:09.996Z,72448
2019-05-23T07:46:11.431Z,76960
2019-05-23T07:47:13.360Z,76384
2019-05-23T07:48:14.532Z,75104
2019-05-23T07:49:15.935Z,76896
2019-05-23T07:50:17.465Z,76000
2019-05-23T07:51:18.881Z,72512
2019-05-23T07:52:20.299Z,73184
2019-05-23T07:53:21.991Z,78592
2019-05-23T07:54:23.617Z,76448
2019-05-23T07:55:25.046Z,80256
2019-05-23T07:56:26.636Z,77248
2019-05-23T07:57:28.048Z,79776
2019-05-23T07:58:29.600Z,83520
2019-05-23T07:59:31.017Z,83552
2019-05-23T08:00:32.700Z,81920
2019-05-23T08:01:34.101Z,85408
2019-05-23T08:02:35.512Z,82464
2019-05-23T08:03:37.204Z,82112
2019-05-23T08:04:38.672Z,80960
2019-05-23T08:05:40.104Z,73728
2019-05-23T08:06:41.741Z,21088
2019-05-23T08:07:43.400Z,11644
2019-05-23T08:08:44.555Z,7108
2019-05-23T08:09:46.266Z,7116
2019-05-23T08:10:47.674Z,6980
2019-05-23T08:11:49.087Z,6620
2019-05-23T08:12:50.797Z,6460
2019-05-23T08:13:52.213Z,7016
2019-05-23T08:14:53.625Z,7252
2019-05-23T08:15:55.319Z,7408
2019-05-23T08:16:56.733Z,7596
2019-05-23T08:17:58.429Z,7492
2019-05-23T08:18:59.811Z,7300
2019-05-23T08:20:01.489Z,7236
2019-05-23T08:21:02.902Z,7184
2019-05-23T08:22:04.316Z,7300
2019-05-23T08:23:06.016Z,7284
2019-05-23T08:24:07.419Z,7272
2019-05-23T08:25:08.829Z,7316
2019-05-23T08:26:10.540Z,7356
2019-05-23T08:27:11.959Z,7280
2019-05-23T08:28:13.360Z,7300
2019-05-23T08:29:27.511Z,7240
2019-05-23T08:30:16.516Z,7372
2019-05-23T08:31:17.958Z,7608
2019-05-23T08:32:19.598Z,8016
2019-05-23T08:33:21.006Z,8432
2019-05-23T08:34:40.158Z,10256
2019-05-23T08:35:23.783Z,13524
2019-05-23T08:36:25.198Z,21664
2019-05-23T08:37:26.795Z,26112
2019-05-23T08:38:28.203Z,82336
2019-05-23T08:39:29.893Z,83200
2019-05-23T08:40:31.301Z,92896
2019-05-23T08:41:32.720Z,90016
2019-05-23T08:42:34.412Z,91328
2019-05-23T08:43:35.826Z,93824
2019-05-23T08:44:37.234Z,93728
2019-05-23T08:45:38.937Z,93536
2019-05-23T08:46:40.375Z,93024
2019-05-23T08:47:41.778Z,91072
2019-05-23T08:48:43.462Z,89408
2019-05-23T08:49:44.870Z,88672
2019-05-23T08:50:46.546Z,93952
2019-05-23T08:51:47.953Z,90176
2019-05-23T08:52:49.363Z,86208
2019-05-23T08:53:51.074Z,76768
2019-05-23T08:54:52.491Z,34176
2019-05-23T08:55:53.901Z,12768
2019-05-23T08:56:55.601Z,9144
2019-05-23T08:57:57.031Z,7040
2019-05-23T08:58:58.443Z,6968
2019-05-23T09:00:00.144Z,6984
2019-05-23T09:01:01.535Z,7180
2019-05-23T09:02:02.942Z,8832
2019-05-23T09:03:04.654Z,18176
2019-05-23T09:04:06.069Z,65856
2019-05-23T09:05:07.739Z,58816
2019-05-23T09:06:09.143Z,69760
2019-05-23T09:07:10.823Z,9432
2019-05-23T09:08:16.168Z,9004
2019-05-23T09:09:28.440Z,8400
2019-05-23T09:10:15.313Z,8396
2019-05-23T09:11:17.002Z,7684
2019-05-23T09:12:18.412Z,7508
2019-05-23T09:13:19.815Z,7464
2019-05-23T09:14:21.523Z,7344
2019-05-23T09:15:22.926Z,7316
2019-05-23T09:16:24.358Z,7372
2019-05-23T09:17:26.049Z,7560
2019-05-23T09:18:27.459Z,7760
2019-05-23T09:19:28.866Z,8696
2019-05-23T09:20:30.609Z,9068
2019-05-23T09:21:32.097Z,8492
2019-05-23T09:22:33.433Z,8240
2019-05-23T09:23:35.100Z,8144
2019-05-23T09:24:36.506Z,7660
2019-05-23T09:25:38.218Z,7456
2019-05-23T09:26:39.633Z,7628
2019-05-23T09:27:41.273Z,7240
2019-05-23T09:28:42.677Z,7168
2019-05-23T09:29:44.360Z,6968
2019-05-23T09:30:45.910Z,6896
2019-05-23T09:31:47.442Z,6824
2019-05-23T09:32:48.853Z,6852
2019-05-23T09:33:50.530Z,6732
2019-05-23T09:34:51.936Z,6776
2019-05-23T09:35:53.615Z,6992
2019-05-23T09:36:55.050Z,6748
2019-05-23T09:37:56.453Z,6876
2019-05-23T09:38:58.153Z,6996
2019-05-23T09:39:59.566Z,6904
2019-05-23T09:41:00.984Z,6924
2019-05-23T09:42:02.674Z,6668
2019-05-23T09:43:04.075Z,6692
2019-05-23T09:44:05.751Z,6752
2019-05-23T09:45:07.165Z,6836
2019-05-23T09:46:08.843Z,6980
2019-05-23T09:47:10.242Z,6920
2019-05-23T09:48:11.641Z,6908
2019-05-23T09:49:13.357Z,6808
2019-05-23T09:50:14.769Z,6700
2019-05-23T09:51:16.171Z,6556
2019-05-23T09:52:17.892Z,6560
2019-05-23T09:53:19.298Z,6524
2019-05-23T09:54:20.982Z,6412
2019-05-23T09:55:22.383Z,6276
2019-05-23T09:56:24.064Z,6284
2019-05-23T09:57:25.469Z,6296
2019-05-23T09:58:26.881Z,6180
2019-05-23T09:59:28.596Z,6132
2019-05-23T10:00:29.999Z,6140
2019-05-23T10:01:31.412Z,5532
2019-05-23T10:02:32.820Z,4764
2019-05-23T10:03:34.362Z,4544
2019-05-23T10:04:35.803Z,4680
2019-05-23T10:05:43.267Z,4976
2019-05-23T10:06:38.877Z,5316
2019-05-23T10:07:40.285Z,5964
2019-05-23T10:08:41.703Z,6680
2019-05-23T10:09:43.424Z,6540
2019-05-23T10:10:44.830Z,5472
2019-05-23T10:11:46.264Z,5004
2019-05-23T10:12:47.934Z,5504
2019-05-23T10:13:49.337Z,5512
2019-05-23T10:14:50.742Z,6220
2019-05-23T10:15:52.159Z,6348
2019-05-23T10:16:53.553Z,6404
2019-05-23T10:17:55.134Z,6860
2019-05-23T10:18:56.537Z,7100
2019-05-23T10:19:57.943Z,5900
2019-05-23T10:20:59.683Z,6772
2019-05-23T10:22:01.073Z,6972
2019-05-23T10:23:02.488Z,6924
2019-05-23T10:24:04.184Z,6848
2019-05-23T10:25:05.602Z,7112
2019-05-23T10:26:07.073Z,7260
2019-05-23T10:27:08.720Z,7340
2019-05-23T10:28:10.116Z,7148
2019-05-23T10:29:11.520Z,6732
2019-05-23T10:30:13.233Z,7316
2019-05-23T10:31:14.647Z,7360
2019-05-23T10:32:16.049Z,7408
2019-05-23T10:33:17.768Z,6688
2019-05-23T10:34:19.171Z,6076
2019-05-23T10:35:20.576Z,4748
2019-05-23T10:36:22.295Z,4788
2019-05-23T10:37:23.679Z,5324
2019-05-23T10:38:28.694Z,5152
2019-05-23T10:39:26.615Z,5056
2019-05-23T10:40:28.015Z,4784
2019-05-23T10:41:29.715Z,4604
2019-05-23T10:42:31.146Z,4908
2019-05-23T10:43:32.783Z,6372
2019-05-23T10:44:34.191Z,6508
2019-05-23T10:45:35.880Z,6148
2019-05-23T10:46:37.273Z,5496
2019-05-23T10:47:38.959Z,4872
2019-05-23T10:48:40.356Z,5288
2019-05-23T10:49:42.040Z,5696
2019-05-23T10:50:45.175Z,5732
2019-05-23T10:51:45.944Z,5408
2019-05-23T10:52:47.350Z,5096
2019-05-23T10:53:48.751Z,5124
2019-05-23T10:54:50.476Z,5348
2019-05-23T10:55:51.883Z,5648
2019-05-23T10:56:53.290Z,5248
2019-05-23T10:57:55.012Z,4948
2019-05-23T10:58:56.416Z,4544
2019-05-23T10:59:58.245Z,4296
2019-05-23T11:00:59.646Z,4428
2019-05-23T11:02:01.255Z,5436
2019-05-23T11:03:02.828Z,5032
2019-05-23T11:04:05.067Z,5748
2019-05-23T11:05:12.905Z,6068
2019-05-23T11:06:16.091Z,5784
2019-05-23T11:07:10.689Z,5624
2019-05-23T11:08:12.029Z,5724
2019-05-23T11:09:13.436Z,5636
2019-05-23T11:10:15.155Z,5824
2019-05-23T11:11:16.556Z,6024
2019-05-23T11:12:17.987Z,5968
2019-05-23T11:13:19.677Z,5716
2019-05-23T11:14:21.084Z,5504
2019-05-23T11:15:22.770Z,5236
2019-05-23T11:16:24.173Z,4936
2019-05-23T11:17:26.869Z,4812
2019-05-23T11:18:28.309Z,4264
2019-05-23T11:19:29.720Z,4016
2019-05-23T11:20:31.395Z,3928
2019-05-23T11:21:32.800Z,3996
2019-05-23T11:22:34.197Z,4108
2019-05-23T11:23:36.252Z,4300
2019-05-23T11:24:37.679Z,4424
2019-05-23T11:25:39.084Z,4260
2019-05-23T11:26:40.650Z,3944
2019-05-23T11:27:42.060Z,4164
2019-05-23T11:28:43.470Z,4408
2019-05-23T11:29:45.211Z,4556
2019-05-23T11:30:46.616Z,4700
2019-05-23T11:31:48.025Z,4752
2019-05-23T11:32:49.704Z,4772
2019-05-23T11:33:51.113Z,4640
2019-05-23T11:34:52.554Z,4764
2019-05-23T11:35:54.228Z,4756
2019-05-23T11:36:55.640Z,4960
2019-05-23T11:37:57.707Z,5080
2019-05-23T11:38:59.108Z,5060
2019-05-23T11:40:00.518Z,5000
2019-05-23T11:41:02.045Z,4904
2019-05-23T11:42:03.455Z,4772
2019-05-23T11:43:04.870Z,4652
2019-05-23T11:44:06.578Z,4664
2019-05-23T11:45:07.983Z,4520
2019-05-23T11:46:09.452Z,4228
2019-05-23T11:47:11.102Z,4388
2019-05-23T11:48:15.781Z,3908
2019-05-23T11:49:13.879Z,3836
2019-05-23T11:50:15.425Z,3812
2019-05-23T11:51:16.842Z,3836
2019-05-23T11:52:18.256Z,4112
2019-05-23T11:53:19.949Z,4564
2019-05-23T11:54:21.354Z,4140
2019-05-23T11:55:22.761Z,4480
2019-05-23T11:56:24.595Z,4500
2019-05-23T11:57:25.868Z,4748
2019-05-23T11:58:31.453Z,5036
2019-05-23T11:59:28.932Z,5476
2019-05-23T12:00:30.654Z,5528
2019-05-23T12:01:32.057Z,5608
2019-05-23T12:02:33.764Z,5524
2019-05-23T12:03:35.546Z,5500
2019-05-23T12:04:36.965Z,5396
2019-05-23T12:05:38.666Z,5556
2019-05-23T12:06:54.704Z,5228
2019-05-23T12:07:41.476Z,5148
2019-05-23T12:08:42.989Z,5024
2019-05-23T12:09:44.438Z,4952
2019-05-23T12:10:46.093Z,5004
2019-05-23T12:11:47.488Z,5092
2019-05-23T12:12:49.167Z,4496
2019-05-23T12:13:50.571Z,4756
2019-05-23T12:14:51.976Z,4544
2019-05-23T12:15:53.692Z,4396
2019-05-23T12:16:55.099Z,4388
2019-05-23T12:17:56.511Z,4100
2019-05-23T12:18:58.220Z,4528
2019-05-23T12:19:59.634Z,4340
2019-05-23T12:21:01.026Z,4416
2019-05-23T12:22:02.737Z,4556
2019-05-23T12:23:10.498Z,4784
2019-05-23T12:24:05.518Z,4712
2019-05-23T12:25:21.133Z,4816
2019-05-23T12:26:08.437Z,5000
2019-05-23T12:27:09.836Z,5284
2019-05-23T12:28:11.466Z,5196
2019-05-23T12:29:12.757Z,5092
2019-05-23T12:30:14.198Z,4876
2019-05-23T12:31:15.907Z,4780
2019-05-23T12:32:17.316Z,4484
2019-05-23T12:33:19.050Z,4320
2019-05-23T12:34:20.422Z,4276
2019-05-23T12:35:22.088Z,4284
2019-05-23T12:36:23.482Z,4240
2019-05-23T12:37:25.163Z,4152
2019-05-23T12:38:26.578Z,4060
2019-05-23T12:39:28.251Z,4040
2019-05-23T12:40:29.658Z,4184
2019-05-23T12:41:31.382Z,4284
2019-05-23T12:42:32.824Z,4412
2019-05-23T12:43:34.441Z,4444
2019-05-23T12:44:35.831Z,4504
2019-05-23T12:45:37.243Z,4432
2019-05-23T12:46:39.004Z,4508
2019-05-23T12:47:40.415Z,4468
2019-05-23T12:48:41.816Z,4508
2019-05-23T12:49:43.473Z,4404
2019-05-23T12:50:44.880Z,4376
2019-05-23T12:51:46.559Z,4284
2019-05-23T12:52:47.963Z,4256
2019-05-23T12:53:49.670Z,4252
2019-05-23T12:54:51.052Z,4276
2019-05-23T12:55:52.457Z,4268
2019-05-23T12:56:53.964Z,4188
2019-05-23T12:57:55.382Z,4132
2019-05-23T12:58:56.794Z,4100
2019-05-23T12:59:58.495Z,4144
2019-05-23T13:00:59.901Z,4172
2019-05-23T13:02:01.741Z,4232
2019-05-23T13:03:03.431Z,4212
2019-05-23T13:04:04.837Z,4284
2019-05-23T13:05:06.237Z,4376
2019-05-23T13:06:07.819Z,4468
2019-05-23T13:07:09.173Z,4296
2019-05-23T13:08:10.586Z,4344
2019-05-23T13:09:12.341Z,4328
2019-05-23T13:10:13.732Z,4304
2019-05-23T13:11:15.138Z,4548
2019-05-23T13:12:16.816Z,4604
2019-05-23T13:13:18.218Z,4676
2019-05-23T13:14:19.633Z,4772
2019-05-23T13:15:22.469Z,4856
2019-05-23T13:16:23.875Z,4960
2019-05-23T13:17:25.334Z,5036
2019-05-23T13:18:26.730Z,5064
2019-05-23T13:19:28.215Z,4952
2019-05-23T13:20:29.637Z,4852
2019-05-23T13:21:31.083Z,4764
2019-05-23T13:22:32.547Z,4728
2019-05-23T13:23:33.943Z,4896
2019-05-23T13:24:51.336Z,4784
2019-05-23T13:25:36.987Z,4736
2019-05-23T13:26:38.387Z,4736
2019-05-23T13:27:39.790Z,4748
2019-05-23T13:28:41.544Z,4688
2019-05-23T13:29:42.954Z,4644
2019-05-23T13:30:44.439Z,4604
2019-05-23T13:31:46.005Z,4468
2019-05-23T13:32:47.419Z,4364
2019-05-23T13:33:49.103Z,4272
2019-05-23T13:34:50.513Z,4124
2019-05-23T13:35:52.175Z,4284
2019-05-23T13:36:53.631Z,4204
2019-05-23T13:37:55.272Z,4228
2019-05-23T13:38:56.674Z,4248
2019-05-23T13:39:58.383Z,3984
2019-05-23T13:40:59.804Z,3860
2019-05-23T13:42:01.215Z,3952
2019-05-23T13:43:06.783Z,3820
2019-05-23T13:44:04.275Z,3732
2019-05-23T13:45:05.692Z,3536
2019-05-23T13:46:07.205Z,3428
2019-05-23T13:47:08.652Z,3320
2019-05-23T13:48:10.069Z,3312
2019-05-23T13:49:11.733Z,3224
2019-05-23T13:50:13.137Z,3260
2019-05-23T13:51:14.640Z,3240
2019-05-23T13:52:16.048Z,3344
2019-05-23T13:53:17.477Z,3572
2019-05-23T13:54:18.892Z,3836
2019-05-23T13:55:20.593Z,4024
2019-05-23T13:56:22.023Z,4068